Pendleton, South Carolina
Current Conditions -  °F | °C
As of 10:54 PM on Friday 24 Oct 2014 (Local Time) from KCEU Reporting Station
Clear Clear  
Wind Chill: 56°   Ceiling: Unl
Heat Index: 56°   Visibility: 10mi
Dew Point: 50°   Wind: 0mph
Humidity: 80%   Direction: NA
Pressure: 30.04"   Gusts: NA
Location:  34.65°N, 82.78°W
Report Text: KCEU 250254Z AUTO 00000KT 10SM CLR 13/10 A3004 RMK AO2 SLP168 T01330100 50006
Loading
Personal Weather Stations






























Interactive Weather Map
Tropical Storm Tracking
New forecast layout! Learn more

10-Day Weather Forecast

Advertisements
Track Severe Weather on mobile